createdAt,value
2018-09-02T00:00:02.294Z,1011.3
2018-09-02T00:01:03.052Z,1011.4
2018-09-02T00:02:04.729Z,1011.4
2018-09-02T00:03:06.721Z,1011.4
2018-09-02T00:04:07.597Z,1011.3
2018-09-02T00:05:08.315Z,1011.4
2018-09-02T00:06:09.288Z,1011.4
2018-09-02T00:07:10.003Z,1011.3
2018-09-02T00:08:11.244Z,1011.4
2018-09-02T00:09:11.942Z,1011.3
2018-09-02T00:10:12.875Z,1011.3
2018-09-02T00:11:13.593Z,1011.3
2018-09-02T00:12:14.306Z,1011.3
2018-09-02T00:13:15.035Z,1011.3
2018-09-02T00:14:15.751Z,1011.3
2018-09-02T00:15:16.766Z,1011.3
2018-09-02T00:16:17.486Z,1011.2
2018-09-02T00:17:19.940Z,1011.2
2018-09-02T00:18:20.648Z,1011.2
2018-09-02T00:19:21.361Z,1011.2
2018-09-02T00:20:22.109Z,1011.2
2018-09-02T00:21:22.796Z,1011.3
2018-09-02T00:22:24.016Z,1011.2
2018-09-02T00:23:24.752Z,1011.2
2018-09-02T00:24:25.722Z,1011.2
2018-09-02T00:25:26.393Z,1011.3
2018-09-02T00:26:27.291Z,1011.3
2018-09-02T00:27:28.051Z,1011.2
2018-09-02T00:28:28.771Z,1011.2
2018-09-02T00:29:29.730Z,1011.2
2018-09-02T00:30:30.443Z,1011.2
2018-09-02T00:31:31.161Z,1011.2
2018-09-02T00:32:32.229Z,1011.2
2018-09-02T00:33:32.934Z,1011.2
2018-09-02T00:34:33.661Z,1011.2
2018-09-02T00:35:34.658Z,1011.2
2018-09-02T00:36:35.520Z,1011.2
2018-09-02T00:37:36.242Z,1011.2
2018-09-02T00:38:36.961Z,1011.2
2018-09-02T00:39:37.672Z,1011.2
2018-09-02T00:40:38.388Z,1011.2
2018-09-02T00:41:39.104Z,1011.2
2018-09-02T00:42:39.829Z,1011.2
2018-09-02T00:43:40.548Z,1011.2
2018-09-02T00:44:41.650Z,1011.2
2018-09-02T00:45:42.359Z,1011.2
2018-09-02T00:46:43.076Z,1011.2
2018-09-02T00:47:43.783Z,1011.2
2018-09-02T00:48:44.501Z,1011.2
2018-09-02T00:49:45.224Z,1011.2
2018-09-02T00:50:45.940Z,1011.2
2018-09-02T00:51:46.649Z,1011.2
2018-09-02T00:52:47.367Z,1011.2
2018-09-02T00:53:48.092Z,1011.2
2018-09-02T00:54:48.810Z,1011.2
2018-09-02T00:55:49.529Z,1011.2
2018-09-02T00:56:50.308Z,1011.2
2018-09-02T00:57:50.958Z,1011.2
2018-09-02T00:58:51.686Z,1011.2
2018-09-02T00:59:52.409Z,1011.2
2018-09-02T01:00:53.122Z,1011.2
2018-09-02T01:01:53.835Z,1011.2
2018-09-02T01:02:54.546Z,1011.2
2018-09-02T01:03:55.272Z,1011.2
2018-09-02T01:04:56.042Z,1011.3
2018-09-02T01:05:56.760Z,1011.2
2018-09-02T01:06:57.502Z,1011.2
2018-09-02T01:07:58.475Z,1011.2
2018-09-02T01:08:59.199Z,1011.3
2018-09-02T01:10:00.257Z,1011.2
2018-09-02T01:11:00.975Z,1011.3
2018-09-02T01:12:01.701Z,1011.3
2018-09-02T01:13:02.419Z,1011.3
2018-09-02T01:14:03.387Z,1011.3
2018-09-02T01:15:04.105Z,1011.3
2018-09-02T01:16:04.830Z,1011.3
2018-09-02T01:17:05.596Z,1011.3
2018-09-02T01:18:06.312Z,1011.3
2018-09-02T01:19:07.278Z,1011.4
2018-09-02T01:20:07.995Z,1011.3
2018-09-02T01:21:08.710Z,1011.3
2018-09-02T01:22:09.487Z,1011.3
2018-09-02T01:23:10.283Z,1011.4
2018-09-02T01:24:10.925Z,1011.3
2018-09-02T01:25:11.665Z,1011.3
2018-09-02T01:26:12.374Z,1011.4
2018-09-02T01:27:13.156Z,1011.3
2018-09-02T01:28:13.878Z,1011.4
2018-09-02T01:29:14.593Z,1011.4
2018-09-02T01:30:15.316Z,1011.4
2018-09-02T01:31:16.050Z,1011.4
2018-09-02T01:32:16.775Z,1011.4
2018-09-02T01:33:17.538Z,1011.4
2018-09-02T01:34:18.255Z,1011.5
2018-09-02T01:35:18.976Z,1011.5
2018-09-02T01:36:19.692Z,1011.5
2018-09-02T01:37:20.424Z,1011.4
2018-09-02T01:38:21.134Z,1011.4
2018-09-02T01:39:21.855Z,1011.4
2018-09-02T01:40:22.557Z,1011.4
2018-09-02T01:41:23.270Z,1011.4
2018-09-02T01:42:23.977Z,1011.4
2018-09-02T01:43:25.046Z,1011.3
2018-09-02T01:44:25.790Z,1011.4
2018-09-02T01:45:26.497Z,1011.4
2018-09-02T01:46:27.215Z,1011.3
2018-09-02T01:47:27.939Z,1011.4
2018-09-02T01:48:28.724Z,1011.4
2018-09-02T01:49:29.436Z,1011.4
2018-09-02T01:50:30.154Z,1011.4
2018-09-02T01:51:30.870Z,1011.4
2018-09-02T01:52:31.582Z,1011.4
2018-09-02T01:53:32.308Z,1011.4
2018-09-02T01:54:33.274Z,1011.5
2018-09-02T01:55:34.005Z,1011.4
2018-09-02T01:56:34.717Z,1011.5
2018-09-02T01:57:35.422Z,1011.5
2018-09-02T01:58:36.151Z,1011.4
2018-09-02T01:59:37.112Z,1011.5
2018-09-02T02:00:37.827Z,1011.4
2018-09-02T02:01:38.792Z,1011.5
2018-09-02T02:02:39.510Z,1011.5
2018-09-02T02:03:40.236Z,1011.5
2018-09-02T02:04:41.009Z,1011.5
2018-09-02T02:05:41.737Z,1011.4
2018-09-02T02:06:42.457Z,1011.4
2018-09-02T02:07:43.183Z,1011.4
2018-09-02T02:08:43.897Z,1011.5
2018-09-02T02:09:44.616Z,1011.4
2018-09-02T02:10:45.338Z,1011.5
2018-09-02T02:11:46.047Z,1011.4
2018-09-02T02:12:46.772Z,1011.4
2018-09-02T02:13:47.481Z,1011.4
2018-09-02T02:14:48.198Z,1011.4
2018-09-02T02:15:49.272Z,1011.4
2018-09-02T02:16:49.988Z,1011.3
2018-09-02T02:17:50.951Z,1011.3
2018-09-02T02:18:51.667Z,1011.3
2018-09-02T02:19:52.389Z,1011.3
2018-09-02T02:20:53.349Z,1011.3
2018-09-02T02:21:54.074Z,1011.3
2018-09-02T02:22:54.802Z,1011.3
2018-09-02T02:23:55.572Z,1011.3
2018-09-02T02:24:56.294Z,1011.2
2018-09-02T02:25:57.251Z,1011.2
2018-09-02T02:26:57.971Z,1011.3
2018-09-02T02:27:58.689Z,1011.2
2018-09-02T02:28:59.405Z,1011.2
2018-09-02T02:30:00.134Z,1011.2
2018-09-02T02:31:00.844Z,1011.2
2018-09-02T02:32:01.552Z,1011.2
2018-09-02T02:33:02.278Z,1011.3
2018-09-02T02:34:02.994Z,1011.3
2018-09-02T02:35:04.064Z,1011.2
2018-09-02T02:36:05.117Z,1011.2
2018-09-02T02:37:05.813Z,1011.3
2018-09-02T02:38:06.514Z,1011.3
2018-09-02T02:39:07.243Z,1011.3
2018-09-02T02:40:07.960Z,1011.3
2018-09-02T02:41:08.693Z,1011.3
2018-09-02T02:42:09.412Z,1011.2
2018-09-02T02:43:10.131Z,1011.2
2018-09-02T02:44:10.848Z,1011.3
2018-09-02T02:45:11.565Z,1011.2
2018-09-02T02:46:12.274Z,1011.2
2018-09-02T02:47:12.995Z,1011.2
2018-09-02T02:48:13.720Z,1011.2
2018-09-02T02:49:14.428Z,1011.2
2018-09-02T02:50:15.406Z,1011.2
2018-09-02T02:51:16.119Z,1011.2
2018-09-02T02:52:16.830Z,1011.2
2018-09-02T02:53:17.553Z,1011.2
2018-09-02T02:54:18.520Z,1011.2
2018-09-02T02:55:19.240Z,1011.2
2018-09-02T02:56:19.956Z,1011.2
2018-09-02T02:57:20.667Z,1011.2
2018-09-02T02:58:21.385Z,1011.2
2018-09-02T02:59:22.098Z,1011.2
2018-09-02T03:00:22.827Z,1011.2
2018-09-02T03:01:23.577Z,1011.2
2018-09-02T03:02:24.313Z,1011.2
2018-09-02T03:03:25.023Z,1011.2
2018-09-02T03:04:25.751Z,1011.2
2018-09-02T03:05:26.473Z,1011.2
2018-09-02T03:06:27.439Z,1011.2
2018-09-02T03:07:28.162Z,1011.2
2018-09-02T03:08:28.885Z,1011.2
2018-09-02T03:09:29.838Z,1011.2
2018-09-02T03:10:30.907Z,1011.2
2018-09-02T03:11:31.615Z,1011.2
2018-09-02T03:12:32.332Z,1011.2
2018-09-02T03:13:33.046Z,1011.2
2018-09-02T03:14:34.001Z,1011.2
2018-09-02T03:15:34.728Z,1011.2
2018-09-02T03:16:35.455Z,1011.2
2018-09-02T03:17:36.227Z,1011.1
2018-09-02T03:18:37.183Z,1011.1
2018-09-02T03:19:37.904Z,1011.1
2018-09-02T03:20:38.613Z,1011.1
2018-09-02T03:21:39.332Z,1011.1
2018-09-02T03:22:40.048Z,1011.1
2018-09-02T03:23:40.770Z,1011.1
2018-09-02T03:24:41.485Z,1011.1
2018-09-02T03:25:42.214Z,1011.1
2018-09-02T03:26:42.933Z,1011.1
2018-09-02T03:27:43.664Z,1011.1
2018-09-02T03:28:44.363Z,1011.1
2018-09-02T03:29:45.080Z,1011.1
2018-09-02T03:30:45.806Z,1011.1
2018-09-02T03:31:46.529Z,1011.1
2018-09-02T03:32:47.242Z,1011.1
2018-09-02T03:33:47.968Z,1011.1
2018-09-02T03:34:48.677Z,1011.1
2018-09-02T03:35:49.398Z,1011.1
2018-09-02T03:36:50.115Z,1011.1
2018-09-02T03:37:50.831Z,1011.0
2018-09-02T03:38:51.547Z,1011.0
2018-09-02T03:39:52.320Z,1011.0
2018-09-02T03:40:53.046Z,1011.0
2018-09-02T03:41:53.772Z,1010.9
2018-09-02T03:42:54.492Z,1010.9
2018-09-02T03:43:55.219Z,1010.9
2018-09-02T03:44:55.983Z,1010.9
2018-09-02T03:45:56.716Z,1010.9
2018-09-02T03:46:57.436Z,1010.9
2018-09-02T03:47:58.156Z,1010.9
2018-09-02T03:48:58.877Z,1010.8
2018-09-02T03:49:59.605Z,1010.8
2018-09-02T03:51:00.324Z,1010.8
2018-09-02T03:52:01.044Z,1010.8
2018-09-02T03:53:01.757Z,1010.8
2018-09-02T03:54:02.725Z,1010.9
2018-09-02T03:55:03.431Z,1010.9
2018-09-02T03:56:04.250Z,1010.9
2018-09-02T03:57:04.959Z,1010.8
2018-09-02T03:58:05.921Z,1010.9
2018-09-02T03:59:06.649Z,1010.9
2018-09-02T04:00:07.421Z,1010.9
2018-09-02T04:01:08.145Z,1010.9
2018-09-02T04:02:08.860Z,1010.9
2018-09-02T04:03:09.580Z,1010.9
2018-09-02T04:04:10.314Z,1010.9
2018-09-02T04:05:11.023Z,1010.9
2018-09-02T04:06:11.749Z,1010.9
2018-09-02T04:07:12.464Z,1010.8
2018-09-02T04:08:13.440Z,1010.9
2018-09-02T04:09:14.401Z,1010.9
2018-09-02T04:10:15.121Z,1010.9
2018-09-02T04:11:15.936Z,1010.9
2018-09-02T04:12:16.606Z,1010.8
2018-09-02T04:13:17.337Z,1010.9
2018-09-02T04:14:18.062Z,1010.8
2018-09-02T04:15:18.781Z,1010.8
2018-09-02T04:16:19.545Z,1010.8
2018-09-02T04:17:20.273Z,1010.8
2018-09-02T04:18:20.988Z,1010.9
2018-09-02T04:19:21.712Z,1010.9
2018-09-02T04:20:22.429Z,1010.9
2018-09-02T04:21:23.201Z,1011.0
2018-09-02T04:22:23.922Z,1010.9
2018-09-02T04:23:24.890Z,1011.0
2018-09-02T04:24:25.606Z,1011.0
2018-09-02T04:25:26.320Z,1011.0
2018-09-02T04:26:27.033Z,1010.9
2018-09-02T04:27:27.766Z,1010.9
2018-09-02T04:28:28.495Z,1010.9
2018-09-02T04:29:29.219Z,1010.9
2018-09-02T04:30:29.943Z,1010.9
2018-09-02T04:31:30.676Z,1010.9
2018-09-02T04:32:31.391Z,1010.9
2018-09-02T04:33:32.141Z,1010.9
2018-09-02T04:34:32.831Z,1010.8
2018-09-02T04:35:33.579Z,1010.8
2018-09-02T04:36:34.325Z,1010.8
2018-09-02T04:37:35.037Z,1010.9
2018-09-02T04:38:35.764Z,1010.8
2018-09-02T04:39:36.476Z,1010.8
2018-09-02T04:40:37.225Z,1010.8
2018-09-02T04:41:37.953Z,1010.8
2018-09-02T04:42:38.674Z,1010.8
2018-09-02T04:43:39.395Z,1010.8
2018-09-02T04:44:40.114Z,1010.8
2018-09-02T04:45:40.839Z,1010.8
2018-09-02T04:46:41.579Z,1010.8
2018-09-02T04:47:42.296Z,1010.8
2018-09-02T04:48:43.015Z,1010.8
2018-09-02T04:49:43.743Z,1010.8
2018-09-02T04:50:44.479Z,1010.9
2018-09-02T04:51:45.559Z,1010.8
2018-09-02T04:52:46.541Z,1010.9
2018-09-02T04:53:47.257Z,1010.8
2018-09-02T04:54:47.989Z,1010.8
2018-09-02T04:55:48.977Z,1010.9
2018-09-02T04:56:49.755Z,1010.9
2018-09-02T04:57:50.481Z,1010.9
2018-09-02T04:58:51.216Z,1010.9
2018-09-02T04:59:51.951Z,1010.9
2018-09-02T05:00:52.673Z,1010.9
2018-09-02T05:01:53.387Z,1010.9
2018-09-02T05:02:54.106Z,1011.0
2018-09-02T05:03:54.823Z,1010.9
2018-09-02T05:04:55.572Z,1010.9
2018-09-02T05:05:56.299Z,1010.9
2018-09-02T05:06:57.023Z,1010.9
2018-09-02T05:07:57.995Z,1011.0
2018-09-02T05:08:58.716Z,1010.9
2018-09-02T05:09:59.440Z,1011.0
2018-09-02T05:11:00.167Z,1011.0
2018-09-02T05:12:00.902Z,1011.0
2018-09-02T05:13:01.623Z,1011.0
2018-09-02T05:14:02.453Z,1010.9
2018-09-02T05:15:03.125Z,1011.0
2018-09-02T05:16:03.835Z,1011.0
2018-09-02T05:17:04.560Z,1011.0
2018-09-02T05:18:05.285Z,1011.0
2018-09-02T05:19:06.003Z,1011.0
2018-09-02T05:20:06.725Z,1011.0
2018-09-02T05:21:07.447Z,1011.0
2018-09-02T05:22:08.185Z,1011.0
2018-09-02T05:23:08.902Z,1011.0
2018-09-02T05:24:09.618Z,1011.0
2018-09-02T05:25:10.334Z,1010.9
2018-09-02T05:26:11.058Z,1011.0
2018-09-02T05:27:11.790Z,1011.0
2018-09-02T05:28:12.508Z,1010.9
2018-09-02T05:29:13.246Z,1011.0
2018-09-02T05:30:13.967Z,1010.9
2018-09-02T05:31:14.695Z,1011.0
2018-09-02T05:32:15.468Z,1011.0
2018-09-02T05:33:16.195Z,1011.0
2018-09-02T05:34:16.916Z,1011.0
2018-09-02T05:35:17.643Z,1011.1
2018-09-02T05:36:18.361Z,1011.0
2018-09-02T05:37:19.343Z,1011.0
2018-09-02T05:38:20.051Z,1011.1
2018-09-02T05:39:20.779Z,1011.1
2018-09-02T05:40:21.499Z,1011.1
2018-09-02T05:41:22.224Z,1011.1
2018-09-02T05:42:22.951Z,1011.1
2018-09-02T05:43:23.679Z,1011.1
2018-09-02T05:44:24.404Z,1011.1
2018-09-02T05:45:25.121Z,1011.1
2018-09-02T05:46:25.909Z,1011.1
2018-09-02T05:47:26.631Z,1011.1
2018-09-02T05:48:27.353Z,1011.1
2018-09-02T05:49:28.069Z,1011.1
2018-09-02T05:50:28.799Z,1011.1
2018-09-02T05:51:29.518Z,1011.1
2018-09-02T05:52:30.240Z,1011.1
2018-09-02T05:53:30.971Z,1011.1
2018-09-02T05:54:31.697Z,1011.1
2018-09-02T05:55:32.412Z,1011.1
2018-09-02T05:56:33.130Z,1011.1
2018-09-02T05:57:34.241Z,1011.1
2018-09-02T05:58:34.934Z,1011.1
2018-09-02T05:59:35.660Z,1011.1
2018-09-02T06:00:36.386Z,1011.1
2018-09-02T06:01:37.108Z,1011.1
2018-09-02T06:02:37.871Z,1011.1
2018-09-02T06:03:38.549Z,1011.1
2018-09-02T06:04:39.519Z,1011.1
2018-09-02T06:05:40.262Z,1011.1
2018-09-02T06:06:40.983Z,1011.1
2018-09-02T06:07:41.919Z,1011.1
2018-09-02T06:08:42.641Z,1011.1
2018-09-02T06:09:43.380Z,1011.1
2018-09-02T06:10:44.102Z,1011.1
2018-09-02T06:11:44.831Z,1011.1
2018-09-02T06:12:45.551Z,1011.1
2018-09-02T06:13:46.282Z,1011.1
2018-09-02T06:14:47.058Z,1011.1
2018-09-02T06:15:47.801Z,1011.1
2018-09-02T06:16:48.516Z,1011.1
2018-09-02T06:17:49.490Z,1011.1
2018-09-02T06:18:50.209Z,1011.1
2018-09-02T06:19:50.930Z,1011.1
2018-09-02T06:20:51.654Z,1011.2
2018-09-02T06:21:52.371Z,1011.1
2018-09-02T06:22:53.106Z,1011.1
2018-09-02T06:23:53.834Z,1011.1
2018-09-02T06:24:54.558Z,1011.1
2018-09-02T06:25:55.290Z,1011.1
2018-09-02T06:26:56.022Z,1011.2
2018-09-02T06:27:56.993Z,1011.2
2018-09-02T06:28:57.716Z,1011.1
2018-09-02T06:29:58.507Z,1011.1
2018-09-02T06:30:59.218Z,1011.1
2018-09-02T06:31:59.938Z,1011.1
2018-09-02T06:33:00.784Z,1011.1
2018-09-02T06:34:01.394Z,1011.1
2018-09-02T06:35:02.125Z,1011.1
2018-09-02T06:36:02.847Z,1011.1
2018-09-02T06:37:03.568Z,1011.1
2018-09-02T06:38:04.302Z,1011.1
2018-09-02T06:39:05.026Z,1011.1
2018-09-02T06:40:05.756Z,1011.1
2018-09-02T06:41:06.833Z,1011.2
2018-09-02T06:42:07.555Z,1011.1
2018-09-02T06:43:08.283Z,1011.2
2018-09-02T06:44:09.006Z,1011.2
2018-09-02T06:45:09.731Z,1011.2
2018-09-02T06:46:10.499Z,1011.2
2018-09-02T06:47:11.224Z,1011.2
2018-09-02T06:48:11.949Z,1011.2
2018-09-02T06:49:12.670Z,1011.1
2018-09-02T06:50:13.395Z,1011.1
2018-09-02T06:51:14.120Z,1011.2
2018-09-02T06:52:14.841Z,1011.1
2018-09-02T06:53:15.559Z,1011.1
2018-09-02T06:54:16.285Z,1011.1
2018-09-02T06:55:17.013Z,1011.1
2018-09-02T06:56:17.749Z,1011.1
2018-09-02T06:57:18.477Z,1011.1
2018-09-02T06:58:19.260Z,1011.1
2018-09-02T06:59:19.986Z,1011.1
2018-09-02T07:00:20.959Z,1011.1
2018-09-02T07:01:21.695Z,1011.1
2018-09-02T07:02:22.422Z,1011.1
2018-09-02T07:03:23.147Z,1011.0
2018-09-02T07:04:23.876Z,1011.1
2018-09-02T07:05:24.597Z,1011.1
2018-09-02T07:06:25.330Z,1011.1
2018-09-02T07:07:26.072Z,1011.1
2018-09-02T07:08:26.791Z,1011.1
2018-09-02T07:09:27.509Z,1011.1
2018-09-02T07:10:28.245Z,1011.1
2018-09-02T07:11:28.970Z,1011.0
2018-09-02T07:12:29.689Z,1011.1
2018-09-02T07:13:30.685Z,1011.0
2018-09-02T07:14:31.491Z,1011.0
2018-09-02T07:15:32.119Z,1011.0
2018-09-02T07:16:32.847Z,1011.0
2018-09-02T07:17:33.568Z,1011.0
2018-09-02T07:18:34.306Z,1011.0
2018-09-02T07:19:35.015Z,1011.0
2018-09-02T07:20:35.993Z,1011.0
2018-09-02T07:21:36.724Z,1011.1
2018-09-02T07:22:37.449Z,1011.1
2018-09-02T07:23:38.193Z,1011.1
2018-09-02T07:24:38.937Z,1011.1
2018-09-02T07:25:39.705Z,1011.1
2018-09-02T07:26:40.678Z,1011.0
2018-09-02T07:27:41.390Z,1011.0
2018-09-02T07:28:42.121Z,1011.0
2018-09-02T07:29:42.849Z,1010.9
2018-09-02T07:30:43.621Z,1011.0
2018-09-02T07:31:44.342Z,1011.0
2018-09-02T07:32:45.610Z,1011.0
2018-09-02T07:33:46.321Z,1011.0
2018-09-02T07:34:47.291Z,1011.0
2018-09-02T07:35:48.010Z,1011.0
2018-09-02T07:36:48.741Z,1011.0
2018-09-02T07:37:49.457Z,1011.0
2018-09-02T07:38:50.194Z,1011.0
2018-09-02T07:39:50.923Z,1011.0
2018-09-02T07:40:51.664Z,1011.0
2018-09-02T07:41:52.385Z,1011.0
2018-09-02T07:42:53.367Z,1011.0
2018-09-02T07:43:54.204Z,1010.9
2018-09-02T07:44:54.817Z,1011.0
2018-09-02T07:45:55.555Z,1010.9
2018-09-02T07:46:56.324Z,1011.0
2018-09-02T07:47:57.003Z,1011.0
2018-09-02T07:48:57.730Z,1011.0
2018-09-02T07:49:58.465Z,1010.9
2018-09-02T07:50:59.458Z,1011.0
2018-09-02T07:52:00.193Z,1011.0
2018-09-02T07:53:00.921Z,1011.0
2018-09-02T07:54:01.660Z,1011.0
2018-09-02T07:55:02.392Z,1011.0
2018-09-02T07:56:03.174Z,1011.0
2018-09-02T07:57:03.898Z,1011.0
2018-09-02T07:58:04.625Z,1011.0
2018-09-02T07:59:05.346Z,1011.0
2018-09-02T08:00:06.072Z,1011.0
2018-09-02T08:01:06.858Z,1011.0
2018-09-02T08:02:07.578Z,1011.0
2018-09-02T08:03:08.554Z,1011.0
2018-09-02T08:04:09.283Z,1010.9
2018-09-02T08:05:10.015Z,1011.0
2018-09-02T08:06:10.749Z,1011.0
2018-09-02T08:07:11.471Z,1011.0
2018-09-02T08:08:12.206Z,1011.0
2018-09-02T08:09:12.938Z,1011.0
2018-09-02T08:10:13.668Z,1011.0
2018-09-02T08:11:14.404Z,1011.0
2018-09-02T08:12:15.147Z,1010.9
2018-09-02T08:13:15.865Z,1011.0
2018-09-02T08:14:16.646Z,1010.9
2018-09-02T08:15:17.378Z,1011.0
2018-09-02T08:16:18.102Z,1011.0
2018-09-02T08:17:18.823Z,1011.0
2018-09-02T08:18:19.553Z,1011.0
2018-09-02T08:19:20.292Z,1011.0
2018-09-02T08:20:21.027Z,1011.0
2018-09-02T08:21:21.741Z,1011.0
2018-09-02T08:22:22.460Z,1011.0
2018-09-02T08:23:23.208Z,1011.0
2018-09-02T08:24:23.941Z,1011.0
2018-09-02T08:25:24.671Z,1011.0
2018-09-02T08:26:25.402Z,1011.0
2018-09-02T08:27:26.131Z,1011.0
2018-09-02T08:28:26.867Z,1011.0
2018-09-02T08:29:27.591Z,1011.0
2018-09-02T08:30:28.340Z,1011.0
2018-09-02T08:31:29.051Z,1011.0
2018-09-02T08:32:29.839Z,1011.0
2018-09-02T08:33:30.569Z,1011.0
2018-09-02T08:34:31.317Z,1011.0
2018-09-02T08:35:32.034Z,1011.1
2018-09-02T08:36:33.023Z,1011.0
2018-09-02T08:37:33.800Z,1010.9
2018-09-02T08:38:34.533Z,1011.0
2018-09-02T08:39:35.261Z,1010.9
2018-09-02T08:40:35.996Z,1010.9
2018-09-02T08:41:36.734Z,1011.0
2018-09-02T08:42:37.459Z,1011.0
2018-09-02T08:43:38.208Z,1010.9
2018-09-02T08:44:38.932Z,1010.9
2018-09-02T08:45:39.663Z,1010.9
2018-09-02T08:46:40.408Z,1010.9
2018-09-02T08:47:41.144Z,1010.9
2018-09-02T08:48:41.867Z,1010.9
2018-09-02T08:49:42.595Z,1010.8
2018-09-02T08:50:43.323Z,1010.9
2018-09-02T08:51:44.060Z,1010.9
2018-09-02T08:52:44.805Z,1010.9
2018-09-02T08:53:45.528Z,1010.9
2018-09-02T08:54:46.268Z,1010.9
2018-09-02T08:55:47.003Z,1010.8
2018-09-02T08:56:47.728Z,1010.9
2018-09-02T08:57:48.469Z,1010.9
2018-09-02T08:58:49.466Z,1010.9
2018-09-02T08:59:50.194Z,1010.9
2018-09-02T09:00:51.186Z,1010.9
2018-09-02T09:01:51.915Z,1010.9
2018-09-02T09:02:52.657Z,1010.9
2018-09-02T09:03:53.382Z,1010.9
2018-09-02T09:04:54.139Z,1010.9
2018-09-02T09:05:54.879Z,1010.9
2018-09-02T09:06:55.677Z,1010.9
2018-09-02T09:07:56.497Z,1010.9
2018-09-02T09:08:57.372Z,1010.9
2018-09-02T09:09:57.855Z,1010.9
2018-09-02T09:10:58.582Z,1011.0
2018-09-02T09:11:59.328Z,1011.0
2018-09-02T09:13:00.047Z,1010.9
2018-09-02T09:14:00.806Z,1010.9
2018-09-02T09:15:01.506Z,1010.9
2018-09-02T09:16:02.494Z,1010.9
2018-09-02T09:17:03.297Z,1010.9
2018-09-02T09:18:04.000Z,1010.9
2018-09-02T09:19:04.735Z,1010.9
2018-09-02T09:20:05.459Z,1010.9
2018-09-02T09:21:06.207Z,1010.9
2018-09-02T09:22:07.323Z,1010.9
2018-09-02T09:23:08.029Z,1010.9
2018-09-02T09:24:08.801Z,1010.9
2018-09-02T09:25:09.581Z,1010.9
2018-09-02T09:26:10.231Z,1010.9
2018-09-02T09:27:11.219Z,1010.8
2018-09-02T09:28:11.952Z,1010.8
2018-09-02T09:29:12.696Z,1010.8
2018-09-02T09:30:13.423Z,1010.8
2018-09-02T09:31:14.166Z,1010.8
2018-09-02T09:32:14.953Z,1010.8
2018-09-02T09:33:15.639Z,1010.8
2018-09-02T09:34:16.366Z,1010.9
2018-09-02T09:35:17.096Z,1010.8
2018-09-02T09:36:17.838Z,1010.9
2018-09-02T09:37:18.568Z,1010.8
2018-09-02T09:38:19.297Z,1010.8
2018-09-02T09:39:20.032Z,1010.8
2018-09-02T09:40:20.768Z,1010.8
2018-09-02T09:41:21.503Z,1010.8
2018-09-02T09:42:22.238Z,1010.8
2018-09-02T09:43:22.966Z,1010.8
2018-09-02T09:44:23.711Z,1010.8
2018-09-02T09:45:24.454Z,1010.8
2018-09-02T09:46:25.180Z,1010.8
2018-09-02T09:47:25.910Z,1010.7
2018-09-02T09:48:26.641Z,1010.7
2018-09-02T09:49:27.686Z,1010.7
2018-09-02T09:50:28.403Z,1010.8
2018-09-02T09:51:29.132Z,1010.8
2018-09-02T09:52:29.868Z,1010.8
2018-09-02T09:53:30.589Z,1010.8
2018-09-02T09:54:31.320Z,1010.8
2018-09-02T09:55:32.081Z,1010.7
2018-09-02T09:56:32.786Z,1010.8
2018-09-02T09:57:33.509Z,1010.7
2018-09-02T09:58:34.257Z,1010.7
2018-09-02T09:59:34.994Z,1010.7
2018-09-02T10:00:35.733Z,1010.7
2018-09-02T10:01:36.470Z,1010.7
2018-09-02T10:02:37.199Z,1010.6
2018-09-02T10:03:37.996Z,1010.7
2018-09-02T10:04:38.674Z,1010.7
2018-09-02T10:05:39.761Z,1010.8
2018-09-02T10:06:40.481Z,1010.7
2018-09-02T10:07:41.235Z,1010.7
2018-09-02T10:08:41.964Z,1010.7
2018-09-02T10:09:42.701Z,1010.7
2018-09-02T10:10:43.441Z,1010.7
2018-09-02T10:11:44.482Z,1010.7
2018-09-02T10:12:45.158Z,1010.7
2018-09-02T10:13:45.875Z,1010.7
2018-09-02T10:14:46.611Z,1010.6
2018-09-02T10:15:47.349Z,1010.5
2018-09-02T10:16:48.073Z,1010.5
2018-09-02T10:17:48.811Z,1010.5
2018-09-02T10:18:49.544Z,1010.5
2018-09-02T10:19:50.286Z,1010.5
2018-09-02T10:20:51.017Z,1010.6
2018-09-02T10:21:51.755Z,1010.6
2018-09-02T10:22:52.480Z,1010.5
2018-09-02T10:23:53.217Z,1010.6
2018-09-02T10:24:53.998Z,1010.5
2018-09-02T10:25:54.731Z,1010.6
2018-09-02T10:26:55.477Z,1010.5
2018-09-02T10:27:56.215Z,1010.5
2018-09-02T10:28:56.947Z,1010.5
2018-09-02T10:29:57.924Z,1010.6
2018-09-02T10:30:58.653Z,1010.5
2018-09-02T10:31:59.384Z,1010.5
2018-09-02T10:33:00.115Z,1010.5
2018-09-02T10:34:00.837Z,1010.5
2018-09-02T10:35:01.623Z,1010.5
2018-09-02T10:36:02.609Z,1010.5
2018-09-02T10:37:03.352Z,1010.5
2018-09-02T10:38:04.076Z,1010.6
2018-09-02T10:39:04.809Z,1010.5
2018-09-02T10:40:05.595Z,1010.5
2018-09-02T10:41:06.355Z,1010.4
2018-09-02T10:42:07.548Z,1010.5
2018-09-02T10:43:08.645Z,1010.4
2018-09-02T10:44:09.373Z,1010.4
2018-09-02T10:45:10.103Z,1010.4
2018-09-02T10:46:10.887Z,1010.4
2018-09-02T10:47:11.622Z,1010.3
2018-09-02T10:48:12.366Z,1010.3
2018-09-02T10:49:13.090Z,1010.3
2018-09-02T10:50:13.838Z,1010.3
2018-09-02T10:51:15.379Z,1010.3
2018-09-02T10:52:16.271Z,1010.3
2018-09-02T10:53:17.001Z,1010.3
2018-09-02T10:54:17.736Z,1010.3
2018-09-02T10:55:18.470Z,1010.3
2018-09-02T10:56:19.263Z,1010.3
2018-09-02T10:57:20.045Z,1010.3
2018-09-02T10:58:20.856Z,1010.3
2018-09-02T10:59:21.585Z,1010.3
2018-09-02T11:00:22.335Z,1010.3
2018-09-02T11:01:23.422Z,1010.3
2018-09-02T11:02:24.155Z,1010.3
2018-09-02T11:03:24.880Z,1010.2
2018-09-02T11:04:25.682Z,1010.2
2018-09-02T11:05:26.391Z,1010.2
2018-09-02T11:06:27.119Z,1010.2
2018-09-02T11:07:27.895Z,1010.1
2018-09-02T11:08:28.627Z,1010.2
2018-09-02T11:09:29.383Z,1010.2
2018-09-02T11:10:30.110Z,1010.2
2018-09-02T11:11:30.848Z,1010.2
2018-09-02T11:12:31.575Z,1010.2
2018-09-02T11:13:32.806Z,1010.1
2018-09-02T11:14:33.583Z,1010.1
2018-09-02T11:15:34.332Z,1010.0
2018-09-02T11:16:35.054Z,1010.0
2018-09-02T11:17:36.064Z,1010.0
2018-09-02T11:18:38.040Z,1010.0
2018-09-02T11:19:39.173Z,1010.0
2018-09-02T11:20:39.935Z,1010.1
2018-09-02T11:21:40.691Z,1010.1
2018-09-02T11:22:41.431Z,1010.1
2018-09-02T11:23:42.178Z,1010.0
2018-09-02T11:24:43.506Z,1010.0
2018-09-02T11:25:44.235Z,1010.0
2018-09-02T11:26:44.967Z,1009.9
2018-09-02T11:27:45.709Z,1009.9
2018-09-02T11:28:46.440Z,1010.0
2018-09-02T11:29:47.180Z,1010.0
2018-09-02T11:30:47.920Z,1010.0
2018-09-02T11:31:49.049Z,1009.9
2018-09-02T11:32:49.870Z,1009.9
2018-09-02T11:33:50.609Z,1009.9
2018-09-02T11:34:51.435Z,1009.9
2018-09-02T11:35:52.177Z,1009.9
2018-09-02T11:36:53.010Z,1009.9
2018-09-02T11:37:53.910Z,1009.9
2018-09-02T11:38:54.695Z,1009.8
2018-09-02T11:39:55.488Z,1009.8
2018-09-02T11:40:56.235Z,1009.9
2018-09-02T11:41:56.959Z,1009.8
2018-09-02T11:42:58.025Z,1009.7
2018-09-02T11:43:59.295Z,1009.7
2018-09-02T11:45:00.131Z,1009.7
2018-09-02T11:46:01.113Z,1009.7
2018-09-02T11:47:02.167Z,1009.7
2018-09-02T11:48:03.096Z,1009.7
2018-09-02T11:49:03.890Z,1009.7
2018-09-02T11:50:04.637Z,1009.7
2018-09-02T11:51:05.391Z,1009.7
2018-09-02T11:52:06.133Z,1009.7
2018-09-02T11:53:07.159Z,1009.6
2018-09-02T11:54:07.863Z,1009.7
2018-09-02T11:55:08.594Z,1009.6
2018-09-02T11:56:09.386Z,1009.7
2018-09-02T11:57:10.133Z,1009.6
2018-09-02T11:58:10.869Z,1009.5
2018-09-02T11:59:11.592Z,1009.6
2018-09-02T12:00:12.320Z,1009.6
2018-09-02T12:01:13.063Z,1009.5
2018-09-02T12:02:14.062Z,1009.6
2018-09-02T12:03:14.807Z,1009.6
2018-09-02T12:04:15.536Z,1009.5
2018-09-02T12:05:16.281Z,1009.6
2018-09-02T12:06:17.008Z,1009.5
2018-09-02T12:07:17.763Z,1009.5
2018-09-02T12:08:18.488Z,1009.4
2018-09-02T12:09:19.257Z,1009.5
2018-09-02T12:10:19.990Z,1009.5
2018-09-02T12:11:20.732Z,1009.5
2018-09-02T12:12:21.468Z,1009.5
2018-09-02T12:13:22.214Z,1009.5
2018-09-02T12:14:23.024Z,1009.5
2018-09-02T12:15:23.697Z,1009.4
2018-09-02T12:16:24.423Z,1009.4
2018-09-02T12:17:25.163Z,1009.3
2018-09-02T12:18:25.898Z,1009.4
2018-09-02T12:19:26.625Z,1009.4
2018-09-02T12:20:27.357Z,1009.4
2018-09-02T12:21:28.089Z,1009.3
2018-09-02T12:22:28.852Z,1009.3
2018-09-02T12:23:29.576Z,1009.3
2018-09-02T12:24:30.324Z,1009.3
2018-09-02T12:25:31.059Z,1009.3
2018-09-02T12:26:31.801Z,1009.3
2018-09-02T12:27:32.540Z,1009.3
2018-09-02T12:28:33.341Z,1009.3
2018-09-02T12:29:34.078Z,1009.3
2018-09-02T12:30:34.818Z,1009.2
2018-09-02T12:31:35.578Z,1009.2
2018-09-02T12:32:36.300Z,1009.2
2018-09-02T12:33:37.089Z,1009.1
2018-09-02T12:34:37.843Z,1009.1
2018-09-02T12:35:38.581Z,1009.2
2018-09-02T12:36:39.319Z,1009.2
2018-09-02T12:37:40.043Z,1009.2